Time;durP1;ratioP1;P1;durP2;ratioP2;P2;SDS_P1;SDS_P2;PMS_P1;PMS_P2;Temp;Humidity;BMP_temperature;BMP_pressure;BME280_temperature;BME280_humidity;BME280_pressure;Samples;Min_cycle;Max_cycle;Signal;HPM_P1;HPM_P2
2022/05/18 00:00:30;;;;;;;3.60;0.50;;;;;;;6.51;61.46;100245.50;103699;1300;24244;-27
2022/05/18 00:03:05;;;;;;;1.30;0.70;;;;;;;6.42;61.97;100246.42;103778;1300;25319;-30
2022/05/18 00:05:36;;;;;;;1.50;0.70;;;;;;;6.33;62.48;100250.77;103763;1300;25147;-25
2022/05/18 00:08:05;;;;;;;2.40;0.40;;;;;;;6.27;62.77;100251.36;103753;1299;25318;-24
2022/05/18 00:10:35;;;;;;;0.80;0.40;;;;;;;6.24;62.85;100255.79;103669;1300;25031;-30
2022/05/18 00:13:04;;;;;;;2.20;0.80;;;;;;;6.18;62.96;100259.21;103737;1299;24980;-28
2022/05/18 00:15:33;;;;;;;1.10;0.50;;;;;;;6.14;62.88;100258.92;103806;1300;23584;-27
2022/05/18 00:18:03;;;;;;;1.00;0.40;;;;;;;6.10;63.06;100262.11;103741;1299;23813;-28
2022/05/18 00:20:32;;;;;;;2.80;0.60;;;;;;;6.07;63.27;100263.23;103719;1300;24269;-28
2022/05/18 00:23:01;;;;;;;2.70;0.50;;;;;;;6.05;63.05;100265.74;103682;1300;22623;-28
2022/05/18 00:25:35;;;;;;;1.30;0.40;;;;;;;6.04;62.86;100264.79;103708;1300;23834;-29
2022/05/18 00:28:05;;;;;;;1.60;0.50;;;;;;;6.01;62.78;100266.89;103691;1300;23744;-25
2022/05/18 00:30:34;;;;;;;2.10;0.60;;;;;;;5.96;62.91;100281.89;103676;1300;23623;-25
2022/05/18 00:33:04;;;;;;;0.90;0.50;;;;;;;5.92;63.17;100280.11;103724;1300;24295;-24
2022/05/18 00:35:34;;;;;;;3.70;0.90;;;;;;;5.89;63.72;100285.92;103713;1300;25223;-25
2022/05/18 00:38:03;;;;;;;1.50;0.50;;;;;;;5.87;63.78;100287.15;103748;1300;23600;-25
2022/05/18 00:40:33;;;;;;;2.40;0.60;;;;;;;5.82;64.07;100289.42;103693;1300;22746;-28
2022/05/18 00:43:02;;;;;;;1.30;0.60;;;;;;;5.77;64.14;100293.61;103558;1300;23596;-28
2022/05/18 00:45:31;;;;;;;2.40;0.60;;;;;;;5.70;64.66;100294.10;103745;1300;24298;-25
2022/05/18 00:48:00;;;;;;;1.60;0.60;;;;;;;5.65;64.74;100293.15;103602;1300;24208;-27
2022/05/18 00:50:32;;;;;;;2.60;0.50;;;;;;;5.63;64.56;100294.25;103641;1300;24292;-26
2022/05/18 00:53:04;;;;;;;2.80;0.40;;;;;;;5.60;64.64;100290.58;103758;1300;24455;-24
2022/05/18 00:55:36;;;;;;;1.80;0.50;;;;;;;5.61;64.25;100294.54;103718;1300;25140;-25
2022/05/18 00:58:12;;;;;;;1.00;0.50;;;;;;;5.59;64.22;100301.10;103783;1300;24289;-24
2022/05/18 01:00:41;;;;;;;3.60;0.70;;;;;;;5.54;64.44;100304.22;103581;1300;22516;-27
2022/05/18 01:03:13;;;;;;;5.50;1.00;;;;;;;5.53;64.22;100304.42;103717;1300;23798;-28
2022/05/18 01:05:43;;;;;;;1.60;0.70;;;;;;;5.49;64.72;100308.43;103697;1300;22485;-28
2022/05/18 01:08:14;;;;;;;3.80;1.00;;;;;;;5.48;64.34;100311.05;103712;1300;25700;-25
2022/05/18 01:10:43;;;;;;;2.00;0.90;;;;;;;5.43;64.72;100314.20;103517;1300;23955;-28
2022/05/18 01:13:12;;;;;;;3.00;0.90;;;;;;;5.41;64.49;100320.76;103630;1300;24995;-24
2022/05/18 01:15:41;;;;;;;2.60;0.80;;;;;;;5.38;64.57;100324.02;103729;1300;24234;-25
2022/05/18 01:18:12;;;;;;;0.90;0.40;;;;;;;5.34;64.59;100326.67;103773;1300;23402;-26
2022/05/18 01:20:41;;;;;;;4.70;0.50;;;;;;;5.30;64.73;100329.95;103579;1303;22531;-25
2022/05/18 01:23:19;;;;;;;2.20;0.90;;;;;;;5.28;64.82;100336.50;103689;1300;22493;-28
2022/05/18 01:25:55;;;;;;;1.00;0.60;;;;;;;5.22;65.19;100338.32;103780;1300;22954;-30
2022/05/18 01:28:25;;;;;;;3.40;0.90;;;;;;;5.15;65.26;100337.47;103733;1300;22626;-24
2022/05/18 01:30:54;;;;;;;2.40;0.80;;;;;;;5.11;65.37;100341.23;103753;1300;25358;-24
2022/05/18 01:33:23;;;;;;;0.90;0.50;;;;;;;5.06;65.50;100341.30;103771;1300;23436;-28
2022/05/18 01:35:52;;;;;;;1.60;0.80;;;;;;;5.03;65.72;100339.45;103643;1299;22501;-30
2022/05/18 01:38:21;;;;;;;2.20;0.50;;;;;;;5.00;65.81;100341.21;103605;1303;22495;-28
2022/05/18 01:40:54;;;;;;;0.50;0.30;;;;;;;4.96;65.91;100345.41;103650;1302;24402;-24
2022/05/18 01:43:25;;;;;;;1.20;0.40;;;;;;;4.90;66.12;100347.24;103713;1300;24957;-29
2022/05/18 01:45:56;;;;;;;1.10;0.50;;;;;;;4.82;66.68;100350.21;103683;1300;25088;-27
2022/05/18 01:48:29;;;;;;;1.10;0.70;;;;;;;4.80;66.56;100351.50;103738;1300;24969;-27
2022/05/18 01:50:59;;;;;;;1.80;0.70;;;;;;;4.75;66.64;100359.02;103655;1300;23629;-27
2022/05/18 01:53:28;;;;;;;1.70;0.40;;;;;;;4.68;66.96;100363.68;103743;1299;23612;-25
2022/05/18 01:55:57;;;;;;;2.00;0.70;;;;;;;4.61;67.37;100362.84;103749;1300;24460;-28
2022/05/18 01:58:27;;;;;;;1.20;0.70;;;;;;;4.56;67.21;100364.73;103735;1300;25227;-23
2022/05/18 02:00:56;;;;;;;4.50;0.90;;;;;;;4.50;67.90;100366.52;103727;1300;23919;-24
2022/05/18 02:03:25;;;;;;;1.30;0.70;;;;;;;4.44;68.05;100369.66;103598;1300;22499;-28
2022/05/18 02:05:54;;;;;;;0.90;0.60;;;;;;;4.37;68.52;100371.88;103653;1301;24329;-30
2022/05/18 02:08:23;;;;;;;3.10;0.60;;;;;;;4.31;68.63;100373.48;103847;1300;22556;-24
2022/05/18 02:10:52;;;;;;;1.50;0.70;;;;;;;4.26;68.58;100379.98;103742;1300;24228;-24
2022/05/18 02:13:21;;;;;;;1.50;0.80;;;;;;;4.21;68.79;100380.57;103775;1300;24060;-24
2022/05/18 02:15:50;;;;;;;1.90;0.80;;;;;;;4.17;68.19;100384.22;103747;1299;24196;-28
2022/05/18 02:18:19;;;;;;;1.00;0.70;;;;;;;4.14;67.61;100379.56;103736;1300;22498;-25
2022/05/18 02:20:48;;;;;;;14.00;2.00;;;;;;;4.22;66.47;100383.86;103755;1300;24289;-24
2022/05/18 02:23:17;;;;;;;1.50;0.80;;;;;;;4.03;66.85;100388.95;103709;1300;23746;-26
2022/05/18 02:25:46;;;;;;;1.30;0.80;;;;;;;3.92;66.67;100389.94;103730;1300;24285;-26
2022/05/18 02:28:15;;;;;;;9.40;1.60;;;;;;;3.86;67.02;100390.06;103704;1300;24345;-25
2022/05/18 02:30:44;;;;;;;10.80;8.70;;;;;;;3.79;67.38;100397.42;103724;1300;24266;-28
2022/05/18 02:33:13;;;;;;;2.50;1.80;;;;;;;3.69;67.60;100399.15;103761;1300;23593;-26
2022/05/18 02:35:42;;;;;;;9.60;1.80;;;;;;;3.64;67.60;100404.86;103696;1300;23609;-24
2022/05/18 02:38:10;;;;;;;5.50;1.60;;;;;;;3.63;67.75;100409.38;103764;1300;22505;-24
2022/05/18 02:40:39;;;;;;;7.50;2.10;;;;;;;3.61;67.99;100404.73;103918;1300;24217;-30
2022/05/18 02:43:08;;;;;;;5.50;2.00;;;;;;;3.60;68.25;100408.19;103708;1300;23894;-27
2022/05/18 02:45:37;;;;;;;4.50;2.00;;;;;;;3.56;68.61;100412.92;103723;1300;22493;-28
2022/05/18 02:48:07;;;;;;;7.40;1.70;;;;;;;3.53;68.59;100419.26;103743;1300;23566;-28
2022/05/18 02:50:36;;;;;;;5.10;1.80;;;;;;;3.45;68.73;100425.71;103764;1300;23616;-24
2022/05/18 02:53:05;;;;;;;5.00;1.60;;;;;;;3.35;68.82;100431.00;103791;1300;22625;-30
2022/05/18 02:58:06;;;;;;;3.00;1.20;;;;;;;3.16;71.40;100437.81;103746;1300;25064;-27
2022/05/18 03:00:35;;;;;;;3.20;1.20;;;;;;;3.12;73.17;100443.60;103731;1300;25034;-23
2022/05/18 03:03:05;;;;;;;4.40;1.70;;;;;;;3.12;72.32;100449.30;103728;1300;23809;-26
2022/05/18 03:05:34;;;;;;;3.80;1.80;;;;;;;3.12;72.42;100451.56;103781;1299;22755;-25
2022/05/18 03:08:05;;;;;;;1.40;0.80;;;;;;;3.13;72.85;100453.83;103754;1300;23602;-28
2022/05/18 03:10:36;;;;;;;3.20;2.00;;;;;;;3.13;72.33;100455.60;103611;1300;25377;-27
2022/05/18 03:13:05;;;;;;;4.70;2.10;;;;;;;3.15;70.92;100455.05;103577;1300;23603;-28
2022/05/18 03:15:34;;;;;;;4.00;2.20;;;;;;;3.25;71.23;100458.34;103698;1300;22742;-28
2022/05/18 03:18:03;;;;;;;7.20;1.40;;;;;;;3.35;70.49;100460.34;103745;1300;23596;-29
2022/05/18 03:23:38;;;;;;;4.80;2.20;;;;;;;3.63;69.58;100465.65;103694;1300;24997;-24
2022/05/18 03:25:53;;;;;;;8.50;1.30;;;;;;;4.11;68.69;100463.44;103662;1300;24234;-28
2022/05/18 03:28:22;;;;;;;2.10;1.20;;;;;;;4.52;68.28;100463.34;103701;1300;24192;-28
2022/05/18 03:30:51;;;;;;;12.00;1.60;;;;;;;4.92;67.72;100465.02;103778;1300;25229;-24
2022/05/18 03:33:20;;;;;;;4.00;1.20;;;;;;;5.29;67.41;100466.39;103729;1300;22796;-24
2022/05/18 03:35:50;;;;;;;1.80;1.10;;;;;;;5.63;66.31;100466.77;103767;1300;23919;-28
2022/05/18 03:38:19;;;;;;;4.10;2.20;;;;;;;5.96;65.95;100464.28;103736;1300;24216;-28
2022/05/18 03:40:48;;;;;;;5.80;1.90;;;;;;;6.27;65.10;100468.93;103800;1300;24208;-24
2022/05/18 03:43:18;;;;;;;4.90;1.60;;;;;;;6.48;64.49;100466.54;103820;1300;24237;-28
2022/05/18 03:45:47;;;;;;;2.70;1.30;;;;;;;6.61;63.30;100468.27;103648;1300;23829;-27
2022/05/18 03:48:17;;;;;;;2.60;1.10;;;;;;;6.73;62.97;100471.73;103737;1300;23796;-28
2022/05/18 03:50:48;;;;;;;2.80;1.80;;;;;;;6.91;62.43;100477.05;103743;1300;25114;-24
2022/05/18 03:53:16;;;;;;;4.30;2.10;;;;;;;7.17;61.79;100478.75;103660;1300;25398;-26
2022/05/18 03:55:46;;;;;;;2.20;1.50;;;;;;;7.37;61.49;100474.95;103754;1300;23594;-30
2022/05/18 03:58:14;;;;;;;3.40;1.50;;;;;;;7.56;60.51;100477.77;103739;1300;22510;-24
2022/05/18 04:00:45;;;;;;;2.60;1.40;;;;;;;7.90;59.30;100481.64;103770;1300;22603;-28
2022/05/18 04:03:15;;;;;;;2.70;1.70;;;;;;;8.25;59.63;100482.83;103688;1300;24263;-24
2022/05/18 04:05:44;;;;;;;6.50;1.90;;;;;;;8.50;58.54;100486.74;103733;1300;25139;-28
2022/05/18 04:08:13;;;;;;;6.90;2.50;;;;;;;8.72;58.53;100485.39;103737;1300;24335;-24
2022/05/18 04:10:42;;;;;;;5.90;1.80;;;;;;;8.76;57.66;100487.63;103545;1300;24218;-24
2022/05/18 04:13:14;;;;;;;4.10;1.70;;;;;;;8.87;57.32;100491.70;103746;1300;22763;-23
2022/05/18 04:15:43;;;;;;;2.30;1.40;;;;;;;8.85;56.77;100493.84;103660;1300;24281;-25
2022/05/18 04:18:12;;;;;;;3.00;0.70;;;;;;;8.85;57.19;100496.72;103462;1300;413972;-25
2022/05/18 04:20:41;;;;;;;1.30;0.80;;;;;;;8.30;57.74;100500.90;103691;1300;24314;-25
2022/05/18 04:23:11;;;;;;;2.20;0.90;;;;;;;7.89;58.97;100503.56;103759;1300;23816;-29
2022/05/18 04:25:41;;;;;;;2.20;0.90;;;;;;;7.55;59.52;100503.54;103706;1300;22510;-24
2022/05/18 04:28:13;;;;;;;1.40;0.60;;;;;;;7.22;60.56;100510.95;103691;1300;24982;-27
2022/05/18 04:30:44;;;;;;;0.90;0.50;;;;;;;6.98;61.21;100515.95;103708;1300;22510;-30
2022/05/18 04:33:15;;;;;;;2.30;1.20;;;;;;;6.62;62.80;100524.30;103570;1300;25801;-30
2022/05/18 04:35:45;;;;;;;1.80;1.00;;;;;;;6.49;62.59;100530.52;103765;1300;24240;-26
2022/05/18 04:38:15;;;;;;;8.90;2.10;;;;;;;6.41;63.21;100528.07;103500;1300;23414;-24
2022/05/18 04:40:44;;;;;;;1.00;0.90;;;;;;;6.38;61.88;100530.89;103568;1300;24301;-27
2022/05/18 04:43:14;;;;;;;2.10;0.80;;;;;;;6.50;63.24;100538.10;103759;1300;22876;-24
2022/05/18 04:45:44;;;;;;;4.80;2.80;;;;;;;7.06;62.27;100534.77;103787;1300;24056;-25
2022/05/18 04:48:15;;;;;;;9.60;2.10;;;;;;;7.67;60.95;100537.61;103690;1300;24246;-28
2022/05/18 04:50:45;;;;;;;3.70;2.30;;;;;;;8.27;61.66;100536.33;103724;1300;25321;-30
2022/05/18 04:53:15;;;;;;;5.20;1.50;;;;;;;8.71;60.76;100537.11;103674;1299;25046;-25
2022/05/18 04:55:44;;;;;;;4.20;1.60;;;;;;;8.93;60.00;100542.19;103748;1300;24993;-28
2022/05/18 04:58:13;;;;;;;5.10;2.30;;;;;;;9.13;60.27;100543.30;103733;1300;24341;-25
2022/05/18 05:00:42;;;;;;;3.90;1.10;;;;;;;9.16;59.78;100546.36;103585;1301;24234;-31
2022/05/18 05:03:11;;;;;;;4.10;1.50;;;;;;;9.17;59.26;100551.47;103488;1300;23902;-30
2022/05/18 05:05:40;;;;;;;5.40;4.20;;;;;;;9.43;59.28;100554.86;103755;1300;24203;-26
2022/05/18 05:08:10;;;;;;;5.50;1.80;;;;;;;9.47;58.14;100563.38;103598;1300;23749;-29
2022/05/18 05:10:39;;;;;;;4.00;1.70;;;;;;;9.52;58.69;100564.73;103776;1300;22498;-29
2022/05/18 05:13:08;;;;;;;3.40;1.50;;;;;;;9.54;57.90;100568.36;103622;1300;25077;-29
2022/05/18 05:15:37;;;;;;;3.60;1.20;;;;;;;9.57;57.68;100571.46;103692;1300;24258;-25
2022/05/18 05:18:07;;;;;;;5.90;2.60;;;;;;;9.70;57.84;100573.43;103661;1300;23900;-25
2022/05/18 05:20:36;;;;;;;5.40;2.40;;;;;;;9.91;57.34;100576.24;103838;1300;25216;-30
2022/05/18 05:23:05;;;;;;;7.40;1.10;;;;;;;10.05;56.99;100573.35;103737;1300;25143;-28
2022/05/18 05:25:34;;;;;;;4.80;1.30;;;;;;;10.39;55.11;100573.77;103894;1300;22511;-24
2022/05/18 05:28:07;;;;;;;2.10;1.30;;;;;;;10.68;54.17;100573.86;103779;1300;24217;-28
2022/05/18 05:30:36;;;;;;;10.60;1.00;;;;;;;10.76;53.21;100574.77;103753;1300;24226;-28
2022/05/18 05:33:06;;;;;;;2.50;1.00;;;;;;;11.15;51.63;100575.66;103724;1300;24257;-25
2022/05/18 05:35:35;;;;;;;9.20;0.70;;;;;;;11.48;52.17;100577.27;103832;1300;24215;-30
2022/05/18 05:38:04;;;;;;;4.90;0.80;;;;;;;11.92;51.82;100578.98;103713;1300;23993;-27
2022/05/18 05:40:33;;;;;;;1.30;0.60;;;;;;;12.22;50.75;100573.91;103556;1300;22510;-24
2022/05/18 05:43:07;;;;;;;1.60;0.80;;;;;;;12.54;48.87;100576.70;103735;1300;23783;-28
2022/05/18 05:45:36;;;;;;;3.30;0.70;;;;;;;12.44;46.63;100580.99;103749;1300;24366;-27
2022/05/18 05:48:07;;;;;;;1.30;0.70;;;;;;;12.69;47.09;100586.96;103783;1300;23823;-28
2022/05/18 05:50:36;;;;;;;1.80;0.50;;;;;;;13.03;46.90;100588.36;103854;1300;24396;-28
2022/05/18 05:53:05;;;;;;;4.40;0.70;;;;;;;13.03;46.47;100587.77;103778;1300;24858;-28
2022/05/18 05:55:34;;;;;;;0.70;0.50;;;;;;;13.18;46.49;100589.11;103803;1300;23219;-25
2022/05/18 05:58:04;;;;;;;1.80;0.70;;;;;;;13.27;44.67;100588.08;103725;1300;22497;-25
2022/05/18 06:00:33;;;;;;;2.30;0.40;;;;;;;13.35;44.57;100593.55;103775;1300;22505;-25
2022/05/18 06:03:02;;;;;;;3.60;0.60;;;;;;;13.31;44.28;100594.19;103687;1299;24250;-30
2022/05/18 06:05:31;;;;;;;1.00;0.60;;;;;;;13.35;43.38;100596.73;103699;1300;24206;-28
2022/05/18 06:08:00;;;;;;;13.00;0.70;;;;;;;13.40;42.86;100600.46;103584;1300;23652;-28
2022/05/18 06:10:29;;;;;;;1.20;0.70;;;;;;;13.44;43.55;100601.52;103768;1300;22645;-25
2022/05/18 06:12:58;;;;;;;1.60;0.60;;;;;;;13.50;42.79;100605.59;103746;1300;25073;-30
2022/05/18 06:15:27;;;;;;;1.90;0.60;;;;;;;13.49;42.17;100607.45;103752;1300;22931;-30
2022/05/18 06:17:56;;;;;;;1.50;0.50;;;;;;;13.42;42.71;100606.52;103682;1300;22508;-27
2022/05/18 06:20:25;;;;;;;3.80;0.90;;;;;;;13.54;41.90;100613.53;103854;1300;22704;-24
2022/05/18 06:22:55;;;;;;;1.40;0.70;;;;;;;13.39;41.67;100615.52;103616;1300;25394;-27
2022/05/18 06:25:24;;;;;;;1.20;0.60;;;;;;;13.61;42.16;100617.41;103654;1300;25136;-25
2022/05/18 06:27:53;;;;;;;2.10;0.50;;;;;;;13.66;41.66;100621.09;103868;1300;24313;-28
2022/05/18 06:30:22;;;;;;;1.00;0.60;;;;;;;13.79;41.93;100622.97;103677;1300;24279;-28
2022/05/18 06:32:51;;;;;;;1.40;0.70;;;;;;;14.06;41.24;100621.73;103644;1300;23137;-28
2022/05/18 06:35:20;;;;;;;2.00;0.40;;;;;;;13.94;41.27;100624.90;103809;1300;24274;-25
2022/05/18 06:37:49;;;;;;;3.00;1.00;;;;;;;14.05;41.87;100629.11;103774;1300;22619;-26
2022/05/18 06:40:18;;;;;;;7.20;0.40;;;;;;;14.28;40.97;100630.59;103779;1300;22759;-25
2022/05/18 06:42:48;;;;;;;0.60;0.30;;;;;;;14.39;40.74;100629.89;103714;1300;22582;-28
2022/05/18 06:45:16;;;;;;;1.00;0.40;;;;;;;14.53;40.56;100633.27;103614;1300;24238;-30
2022/05/18 06:47:46;;;;;;;3.00;0.60;;;;;;;14.45;39.91;100638.39;103850;1300;22716;-27
2022/05/18 06:50:15;;;;;;;3.20;0.90;;;;;;;14.65;40.21;100639.13;103789;1298;24204;-25
2022/05/18 06:52:45;;;;;;;6.00;0.30;;;;;;;14.76;39.06;100642.44;103607;1300;23950;-25
2022/05/18 06:55:14;;;;;;;2.40;0.60;;;;;;;14.90;39.16;100642.31;103651;1300;25174;-25
2022/05/18 06:57:44;;;;;;;1.80;0.80;;;;;;;15.23;38.90;100643.67;103786;1300;24314;-28
2022/05/18 07:00:13;;;;;;;1.90;0.70;;;;;;;15.30;38.44;100648.73;103615;1300;24216;-26
2022/05/18 07:02:43;;;;;;;2.00;0.60;;;;;;;15.19;38.48;100648.23;103849;1300;23822;-29
2022/05/18 07:05:12;;;;;;;1.30;0.40;;;;;;;15.26;37.69;100649.11;103650;1300;23599;-25
2022/05/18 07:07:41;;;;;;;1.30;0.80;;;;;;;15.36;38.27;100649.98;103684;1300;22500;-28
2022/05/18 07:10:10;;;;;;;3.80;0.40;;;;;;;15.58;38.02;100653.79;103739;1303;24254;-25
2022/05/18 07:12:39;;;;;;;2.70;0.70;;;;;;;15.66;37.28;100660.89;103593;1300;24208;-28
2022/05/18 07:15:08;;;;;;;3.40;0.90;;;;;;;15.82;37.40;100656.73;103859;1300;23567;-30
2022/05/18 07:17:38;;;;;;;3.20;1.00;;;;;;;15.84;35.42;100653.30;103814;1300;23947;-24
2022/05/18 07:20:07;;;;;;;2.60;0.70;;;;;;;15.37;35.65;100658.69;103847;1300;24334;-30
2022/05/18 07:22:36;;;;;;;2.90;0.80;;;;;;;15.75;37.05;100665.29;103841;1300;24265;-30
2022/05/18 07:25:06;;;;;;;0.50;0.40;;;;;;;16.32;36.44;100664.19;103818;1300;24226;-25
2022/05/18 07:27:35;;;;;;;1.00;0.60;;;;;;;16.55;35.50;100666.69;103806;1300;23828;-24
2022/05/18 07:30:04;;;;;;;1.70;0.60;;;;;;;16.61;35.33;100666.86;103794;1300;23193;-27
2022/05/18 07:32:33;;;;;;;1.80;0.30;;;;;;;15.94;33.65;100669.82;103787;1300;22629;-28
2022/05/18 07:35:03;;;;;;;1.10;0.70;;;;;;;15.15;34.54;100665.81;103759;1300;23793;-25
2022/05/18 07:37:32;;;;;;;1.90;0.60;;;;;;;14.73;35.61;100666.66;103729;1300;24284;-28
2022/05/18 07:40:01;;;;;;;1.70;0.90;;;;;;;15.51;36.46;100669.48;103523;1303;24408;-24
2022/05/18 07:42:30;;;;;;;1.20;0.50;;;;;;;15.75;35.32;100672.52;103630;1300;24239;-26
2022/05/18 07:44:59;;;;;;;2.60;0.70;;;;;;;16.22;35.98;100670.33;103781;1300;22907;-30
2022/05/18 07:47:30;;;;;;;5.30;0.80;;;;;;;16.68;34.91;100671.48;103798;1300;22635;-26
2022/05/18 07:49:59;;;;;;;5.00;1.30;;;;;;;16.94;33.92;100665.40;103810;1300;23813;-28
2022/05/18 07:52:28;;;;;;;1.40;0.70;;;;;;;17.03;32.94;100663.88;103751;1300;23805;-28
2022/05/18 07:54:57;;;;;;;3.00;0.60;;;;;;;17.20;33.33;100669.98;103758;1300;22491;-25
2022/05/18 07:57:26;;;;;;;3.30;0.90;;;;;;;16.52;32.35;100672.39;103781;1299;24255;-24
2022/05/18 07:59:59;;;;;;;3.50;0.40;;;;;;;16.20;32.72;100676.98;103597;1300;23199;-24
2022/05/18 08:02:29;;;;;;;2.60;0.60;;;;;;;16.06;34.12;100673.02;103813;1300;24987;-25
2022/05/18 08:04:59;;;;;;;0.60;0.40;;;;;;;16.62;33.29;100670.71;103752;1300;22803;-28
2022/05/18 08:07:28;;;;;;;3.60;0.60;;;;;;;17.28;33.06;100668.05;103649;1300;24214;-25
2022/05/18 08:17:35;;;;;;;2.90;0.40;;;;;;;17.63;31.58;100672.70;103700;1299;25057;-28
2022/05/18 08:20:06;;;;;;;1.60;0.40;;;;;;;17.86;31.16;100672.48;103830;1300;23108;-25
2022/05/18 08:22:35;;;;;;;1.30;0.60;;;;;;;17.72;30.24;100674.52;103569;1303;25227;-24
2022/05/18 08:25:04;;;;;;;4.10;0.50;;;;;;;17.60;30.86;100673.83;103651;1300;25002;-24
2022/05/18 08:27:33;;;;;;;3.40;0.40;;;;;;;18.09;30.77;100672.35;103779;1300;22510;-28
2022/05/18 08:30:04;;;;;;;1.10;0.60;;;;;;;18.30;29.45;100669.04;103721;1300;24259;-24
2022/05/18 08:32:33;;;;;;;1.60;0.60;;;;;;;18.22;29.46;100666.00;103577;1301;24364;-28
2022/05/18 08:35:03;;;;;;;1.00;0.40;;;;;;;17.79;30.44;100669.09;103609;1300;23795;-28
2022/05/18 08:37:38;;;;;;;14.00;0.90;;;;;;;18.20;30.63;100668.23;103765;1300;24252;-25
2022/05/18 08:40:11;;;;;;;2.00;0.50;;;;;;;18.47;28.63;100667.37;103722;1300;24210;-28
2022/05/18 08:42:41;;;;;;;0.30;0.30;;;;;;;17.54;28.29;100671.61;103753;1300;23736;-27
2022/05/18 08:45:10;;;;;;;5.90;0.50;;;;;;;17.81;29.49;100670.96;103760;1300;24387;-28
2022/05/18 08:47:41;;;;;;;0.90;0.40;;;;;;;18.09;29.23;100667.73;103684;1300;23617;-28
2022/05/18 08:50:14;;;;;;;1.50;0.60;;;;;;;18.36;28.71;100660.36;103806;1300;25408;-29
2022/05/18 08:52:50;;;;;;;6.30;0.50;;;;;;;18.74;29.24;100664.09;103794;1300;24188;-25
2022/05/18 08:55:27;;;;;;;3.00;0.40;;;;;;;19.35;28.52;100662.13;103712;1300;24355;-28
2022/05/18 08:57:58;;;;;;;0.80;0.40;;;;;;;19.57;27.72;100663.86;103621;1300;25098;-24
2022/05/18 09:00:31;;;;;;;3.30;0.40;;;;;;;19.66;27.69;100664.04;103645;1300;22707;-28
2022/05/18 09:03:04;;;;;;;0.70;0.30;;;;;;;19.83;27.32;100662.21;103565;1300;24293;-28
2022/05/18 09:05:38;;;;;;;1.10;0.50;;;;;;;19.72;27.33;100661.00;103582;1300;24298;-28
2022/05/18 09:08:08;;;;;;;2.10;0.50;;;;;;;19.78;27.39;100658.59;103699;1299;24220;-28
2022/05/18 09:10:44;;;;;;;1.80;0.40;;;;;;;20.30;27.43;100659.77;103628;1300;24013;-25
2022/05/18 09:13:13;;;;;;;4.90;0.20;;;;;;;20.83;26.58;100660.10;103598;1300;24196;-24
2022/05/18 09:15:46;;;;;;;6.70;3.50;;;;;;;21.10;26.26;100652.41;103692;1300;24329;-28
2022/05/18 09:18:19;;;;;;;0.70;0.40;;;;;;;21.23;25.92;100655.56;103684;1300;24208;-30
2022/05/18 09:20:55;;;;;;;0.60;0.40;;;;;;;21.23;25.85;100658.58;103730;1300;24234;-28
2022/05/18 09:23:29;;;;;;;5.50;0.50;;;;;;;21.09;25.36;100666.17;103759;1300;22625;-24
2022/05/18 09:26:04;;;;;;;1.90;0.60;;;;;;;21.30;24.74;100657.98;103690;1300;24394;-28
2022/05/18 09:28:37;;;;;;;2.90;0.30;;;;;;;20.58;24.41;100665.09;103812;1299;22790;-29
2022/05/18 09:31:06;;;;;;;1.30;0.40;;;;;;;20.23;25.60;100665.16;103715;1300;22509;-25
2022/05/18 09:33:35;;;;;;;2.80;0.40;;;;;;;20.87;25.31;100657.79;103721;1300;22524;-24
2022/05/18 09:36:19;;;;;;;1.40;0.40;;;;;;;21.18;24.15;100653.97;103727;1300;24243;-28
2022/05/18 09:38:54;;;;;;;0.90;0.40;;;;;;;21.35;23.89;100651.79;103689;1300;23457;-24
2022/05/18 09:41:27;;;;;;;0.20;0.20;;;;;;;21.18;24.11;100652.40;103626;1300;24245;-24
2022/05/18 09:43:59;;;;;;;0.80;0.20;;;;;;;21.82;24.76;100653.08;103747;1300;24217;-24
2022/05/18 09:46:29;;;;;;;1.50;0.50;;;;;;;22.20;22.48;100651.54;103796;1300;22601;-24
2022/05/18 09:49:09;;;;;;;0.60;0.30;;;;;;;22.07;21.70;100649.24;103589;1300;24298;-27
2022/05/18 09:51:38;;;;;;;0.70;0.40;;;;;;;21.65;22.43;100652.20;103710;1300;22626;-24
2022/05/18 09:54:09;;;;;;;9.10;0.50;;;;;;;21.63;22.35;100652.48;103729;1300;22989;-30
2022/05/18 09:56:44;;;;;;;0.80;0.40;;;;;;;21.60;22.36;100652.58;103705;1300;26285;-24
2022/05/18 09:59:17;;;;;;;2.00;0.30;;;;;;;21.68;22.47;100651.02;103653;1300;22490;-24
2022/05/18 10:09:27;;;;;;;0.80;0.30;;;;;;;22.28;22.10;100654.70;103670;1300;23692;-28
2022/05/18 10:11:56;;;;;;;1.00;0.40;;;;;;;22.47;21.78;100657.94;103765;1300;24213;-24
2022/05/18 10:14:29;;;;;;;1.30;0.30;;;;;;;22.64;21.80;100653.34;103731;1300;24979;-24
2022/05/18 10:17:03;;;;;;;0.30;0.20;;;;;;;22.12;21.09;100654.77;103816;1300;24335;-28
2022/05/18 10:19:36;;;;;;;0.90;0.50;;;;;;;21.80;21.73;100653.64;103571;1300;23741;-24
2022/05/18 10:22:06;;;;;;;7.00;0.40;;;;;;;21.90;20.81;100650.17;103694;1300;25035;-28
2022/05/18 10:24:50;;;;;;;0.20;0.10;;;;;;;21.33;21.06;100646.58;103692;1300;24236;-24
2022/05/18 10:27:20;;;;;;;20.30;0.70;;;;;;;21.90;21.41;100647.13;103555;1300;22787;-28
2022/05/18 10:29:51;;;;;;;0.90;0.40;;;;;;;22.03;20.65;100644.89;103605;1300;22505;-25
2022/05/18 10:32:22;;;;;;;3.00;0.70;;;;;;;22.07;21.39;100643.49;103661;1300;23263;-28
2022/05/18 10:34:52;;;;;;;0.10;0.10;;;;;;;22.82;20.99;100638.29;103732;1300;24331;-28
2022/05/18 10:37:24;;;;;;;0.40;0.20;;;;;;;23.36;20.18;100633.35;103678;1300;23943;-28
2022/05/18 10:39:58;;;;;;;2.10;0.30;;;;;;;23.90;19.88;100635.20;103784;1299;23858;-28
2022/05/18 10:42:31;;;;;;;0.50;0.30;;;;;;;23.79;20.05;100633.23;103746;1300;24285;-24
2022/05/18 10:45:01;;;;;;;0.80;0.20;;;;;;;23.88;19.09;100630.73;103723;1300;25047;-24
2022/05/18 10:47:33;;;;;;;0.90;0.30;;;;;;;23.20;19.40;100632.73;103681;1299;24304;-24
2022/05/18 10:50:09;;;;;;;1.60;0.40;;;;;;;23.12;19.55;100631.13;103765;1300;22608;-24
2022/05/18 10:52:38;;;;;;;0.70;0.40;;;;;;;23.26;19.37;100630.25;103709;1300;24292;-27
2022/05/18 10:55:15;;;;;;;1.30;0.40;;;;;;;23.20;19.17;100629.66;103594;1300;22502;-24
2022/05/18 10:57:51;;;;;;;1.00;0.30;;;;;;;22.84;18.54;100632.81;103704;1300;24295;-28
2022/05/18 11:00:21;;;;;;;0.60;0.20;;;;;;;22.16;19.36;100628.38;103680;1300;22724;-28
2022/05/18 11:02:57;;;;;;;1.10;0.20;;;;;;;22.50;19.52;100622.36;103676;1300;23602;-24
2022/05/18 11:05:35;;;;;;;4.80;0.20;;;;;;;23.03;19.04;100621.36;103683;1300;23735;-28
2022/05/18 11:08:07;;;;;;;1.10;0.30;;;;;;;22.36;19.10;100618.38;103654;1300;22510;-24
2022/05/18 11:10:43;;;;;;;1.50;0.20;;;;;;;22.37;19.53;100612.70;103714;1300;24192;-28
2022/05/18 11:13:18;;;;;;;1.70;0.60;;;;;;;23.28;19.88;100608.33;103754;1300;23828;-24
2022/05/18 11:15:55;;;;;;;1.20;0.20;;;;;;;23.74;18.74;100611.83;103562;1300;23780;-28
2022/05/18 11:18:27;;;;;;;1.50;1.00;;;;;;;23.55;18.62;100605.46;103729;1300;23642;-28
2022/05/18 11:21:03;;;;;;;0.70;0.30;;;;;;;23.46;18.84;100601.70;103750;1300;24206;-28
2022/05/18 11:23:39;;;;;;;1.10;0.30;;;;;;;23.74;18.63;100600.58;103742;1300;22513;-24
2022/05/18 11:26:15;;;;;;;0.40;0.30;;;;;;;23.81;18.46;100601.15;103513;1300;24215;-24
2022/05/18 11:28:52;;;;;;;6.00;0.30;;;;;;;22.27;19.71;100596.73;103645;1300;24218;-28
2022/05/18 11:31:25;;;;;;;3.70;0.20;;;;;;;22.54;18.84;100591.33;103675;1300;22787;-24
2022/05/18 11:34:05;;;;;;;0.90;0.30;;;;;;;22.51;18.65;100592.63;103745;1300;24340;-28
2022/05/18 11:36:43;;;;;;;0.60;0.30;;;;;;;23.38;18.38;100586.55;103679;1300;24250;-27
2022/05/18 11:39:21;;;;;;;1.90;0.20;;;;;;;23.31;18.84;100587.34;103775;1300;24275;-24
2022/05/18 11:41:53;;;;;;;2.40;0.30;;;;;;;23.66;18.20;100585.42;103669;1300;24415;-24
2022/05/18 11:44:46;;;;;;;5.20;0.30;;;;;;;24.12;18.26;100584.52;103727;1300;24992;-28
2022/05/18 11:47:22;;;;;;;0.20;0.20;;;;;;;24.35;17.36;100582.43;103689;1300;24240;-28
2022/05/18 11:49:54;;;;;;;0.50;0.30;;;;;;;23.98;17.54;100586.17;103689;1300;24263;-28
2022/05/18 11:52:30;;;;;;;0.80;0.40;;;;;;;23.91;17.50;100585.92;103667;1300;24278;-28
2022/05/18 11:55:06;;;;;;;0.20;0.00;;;;;;;23.52;18.02;100585.80;103733;1300;24234;-28
2022/05/18 11:57:45;;;;;;;0.30;0.20;;;;;;;23.45;17.18;100575.73;103707;1300;23951;-24